sensor_id;sensor_type;location;lat;lon;timestamp;P1;durP1;ratioP1;P2;durP2;ratioP2
62616;SDS011;62539;51.190;6.808;2022-09-09T00:04:42;0.60;;;0.40;;
62616;SDS011;62539;51.190;6.808;2022-09-09T00:10:16;0.70;;;0.50;;
62616;SDS011;62539;51.190;6.808;2022-09-09T00:21:37;3.08;;;0.75;;
62616;SDS011;62539;51.190;6.808;2022-09-09T00:24:18;0.80;;;0.50;;
62616;SDS011;62539;51.190;6.808;2022-09-09T00:27:19;0.70;;;0.40;;
62616;SDS011;62539;51.190;6.808;2022-09-09T00:30:16;3.08;;;0.60;;
62616;SDS011;62539;51.190;6.808;2022-09-09T00:32:47;1.38;;;0.60;;
62616;SDS011;62539;51.190;6.808;2022-09-09T00:35:17;0.85;;;0.50;;
62616;SDS011;62539;51.190;6.808;2022-09-09T00:37:50;0.63;;;0.40;;
62616;SDS011;62539;51.190;6.808;2022-09-09T00:40:28;0.57;;;0.40;;
62616;SDS011;62539;51.190;6.808;2022-09-09T00:43:14;0.98;;;0.50;;
62616;SDS011;62539;51.190;6.808;2022-09-09T00:45:49;2.08;;;0.50;;
62616;SDS011;62539;51.190;6.808;2022-09-09T00:57:30;1.10;;;0.55;;
62616;SDS011;62539;51.190;6.808;2022-09-09T01:00:46;0.52;;;0.30;;
62616;SDS011;62539;51.190;6.808;2022-09-09T01:09:18;0.40;;;0.40;;
62616;SDS011;62539;51.190;6.808;2022-09-09T01:12:33;0.70;;;0.50;;
62616;SDS011;62539;51.190;6.808;2022-09-09T01:15:23;1.27;;;0.60;;
62616;SDS011;62539;51.190;6.808;2022-09-09T01:27:31;0.75;;;0.40;;
62616;SDS011;62539;51.190;6.808;2022-09-09T01:29:59;0.90;;;0.60;;
62616;SDS011;62539;51.190;6.808;2022-09-09T01:35:31;0.52;;;0.40;;
62616;SDS011;62539;51.190;6.808;2022-09-09T01:38:22;1.80;;;0.38;;
62616;SDS011;62539;51.190;6.808;2022-09-09T01:40:50;0.70;;;0.40;;
62616;SDS011;62539;51.190;6.808;2022-09-09T01:43:18;1.25;;;0.50;;
62616;SDS011;62539;51.190;6.808;2022-09-09T01:45:49;1.90;;;0.73;;
62616;SDS011;62539;51.190;6.808;2022-09-09T01:48:21;0.68;;;0.50;;
62616;SDS011;62539;51.190;6.808;2022-09-09T01:50:49;1.23;;;0.40;;
62616;SDS011;62539;51.190;6.808;2022-09-09T01:53:15;1.10;;;0.60;;
62616;SDS011;62539;51.190;6.808;2022-09-09T01:55:46;0.80;;;0.50;;
62616;SDS011;62539;51.190;6.808;2022-09-09T01:58:17;0.68;;;0.50;;
62616;SDS011;62539;51.190;6.808;2022-09-09T02:01:07;0.30;;;0.30;;
62616;SDS011;62539;51.190;6.808;2022-09-09T02:03:53;0.47;;;0.40;;
62616;SDS011;62539;51.190;6.808;2022-09-09T02:06:28;1.05;;;0.50;;
62616;SDS011;62539;51.190;6.808;2022-09-09T02:09:00;0.20;;;0.20;;
62616;SDS011;62539;51.190;6.808;2022-09-09T02:11:31;0.90;;;0.40;;
62616;SDS011;62539;51.190;6.808;2022-09-09T02:14:03;0.30;;;0.30;;
62616;SDS011;62539;51.190;6.808;2022-09-09T02:16:41;0.98;;;0.50;;
62616;SDS011;62539;51.190;6.808;2022-09-09T02:19:37;0.95;;;0.50;;
62616;SDS011;62539;51.190;6.808;2022-09-09T02:22:11;0.95;;;0.40;;
62616;SDS011;62539;51.190;6.808;2022-09-09T02:24:37;0.77;;;0.40;;
62616;SDS011;62539;51.190;6.808;2022-09-09T02:27:05;0.85;;;0.40;;
62616;SDS011;62539;51.190;6.808;2022-09-09T02:29:34;0.93;;;0.50;;
62616;SDS011;62539;51.190;6.808;2022-09-09T02:32:06;1.27;;;0.40;;
62616;SDS011;62539;51.190;6.808;2022-09-09T02:34:46;0.82;;;0.47;;
62616;SDS011;62539;51.190;6.808;2022-09-09T02:37:17;2.15;;;0.50;;
62616;SDS011;62539;51.190;6.808;2022-09-09T02:39:48;1.05;;;0.50;;
62616;SDS011;62539;51.190;6.808;2022-09-09T02:42:13;0.80;;;0.40;;
62616;SDS011;62539;51.190;6.808;2022-09-09T02:44:40;1.02;;;0.50;;
62616;SDS011;62539;51.190;6.808;2022-09-09T02:50:12;0.90;;;0.50;;
62616;SDS011;62539;51.190;6.808;2022-09-09T02:55:38;0.60;;;0.45;;
62616;SDS011;62539;51.190;6.808;2022-09-09T02:58:08;0.52;;;0.50;;
62616;SDS011;62539;51.190;6.808;2022-09-09T03:00:42;0.68;;;0.47;;
62616;SDS011;62539;51.190;6.808;2022-09-09T03:03:11;0.63;;;0.30;;
62616;SDS011;62539;51.190;6.808;2022-09-09T03:05:37;0.52;;;0.40;;
62616;SDS011;62539;51.190;6.808;2022-09-09T03:08:03;0.32;;;0.30;;
62616;SDS011;62539;51.190;6.808;2022-09-09T03:10:30;0.63;;;0.35;;
62616;SDS011;62539;51.190;6.808;2022-09-09T03:12:57;0.50;;;0.40;;
62616;SDS011;62539;51.190;6.808;2022-09-09T03:15:23;3.28;;;0.50;;
62616;SDS011;62539;51.190;6.808;2022-09-09T03:17:48;0.57;;;0.40;;
62616;SDS011;62539;51.190;6.808;2022-09-09T03:20:14;0.43;;;0.40;;
62616;SDS011;62539;51.190;6.808;2022-09-09T03:22:39;0.50;;;0.50;;
62616;SDS011;62539;51.190;6.808;2022-09-09T03:25:05;0.85;;;0.40;;
62616;SDS011;62539;51.190;6.808;2022-09-09T03:27:31;0.20;;;0.20;;
62616;SDS011;62539;51.190;6.808;2022-09-09T03:29:57;0.40;;;0.40;;
62616;SDS011;62539;51.190;6.808;2022-09-09T03:32:23;0.40;;;0.30;;
62616;SDS011;62539;51.190;6.808;2022-09-09T03:34:50;0.57;;;0.30;;
62616;SDS011;62539;51.190;6.808;2022-09-09T03:37:17;1.10;;;0.32;;
62616;SDS011;62539;51.190;6.808;2022-09-09T03:39:43;0.40;;;0.30;;
62616;SDS011;62539;51.190;6.808;2022-09-09T03:42:09;0.47;;;0.30;;
62616;SDS011;62539;51.190;6.808;2022-09-09T03:44:37;0.75;;;0.50;;
62616;SDS011;62539;51.190;6.808;2022-09-09T03:47:02;0.60;;;0.40;;
62616;SDS011;62539;51.190;6.808;2022-09-09T03:49:28;0.65;;;0.50;;
62616;SDS011;62539;51.190;6.808;2022-09-09T03:51:54;0.45;;;0.40;;
62616;SDS011;62539;51.190;6.808;2022-09-09T03:54:22;0.68;;;0.52;;
62616;SDS011;62539;51.190;6.808;2022-09-09T03:56:49;0.85;;;0.40;;
62616;SDS011;62539;51.190;6.808;2022-09-09T03:59:15;0.40;;;0.40;;
62616;SDS011;62539;51.190;6.808;2022-09-09T04:01:40;0.50;;;0.45;;
62616;SDS011;62539;51.190;6.808;2022-09-09T04:04:06;0.63;;;0.38;;
62616;SDS011;62539;51.190;6.808;2022-09-09T04:06:32;1.13;;;0.40;;
62616;SDS011;62539;51.190;6.808;2022-09-09T04:08:58;0.32;;;0.32;;
62616;SDS011;62539;51.190;6.808;2022-09-09T04:11:23;0.70;;;0.50;;
62616;SDS011;62539;51.190;6.808;2022-09-09T04:13:49;0.55;;;0.50;;
62616;SDS011;62539;51.190;6.808;2022-09-09T04:16:15;0.40;;;0.30;;
62616;SDS011;62539;51.190;6.808;2022-09-09T04:18:40;0.35;;;0.30;;
62616;SDS011;62539;51.190;6.808;2022-09-09T04:21:07;0.40;;;0.40;;
62616;SDS011;62539;51.190;6.808;2022-09-09T04:23:35;0.40;;;0.40;;
62616;SDS011;62539;51.190;6.808;2022-09-09T04:26:01;0.47;;;0.40;;
62616;SDS011;62539;51.190;6.808;2022-09-09T04:28:28;1.00;;;0.47;;
62616;SDS011;62539;51.190;6.808;2022-09-09T04:31:03;0.93;;;0.47;;
62616;SDS011;62539;51.190;6.808;2022-09-09T04:33:39;0.50;;;0.40;;
62616;SDS011;62539;51.190;6.808;2022-09-09T04:36:05;3.95;;;0.80;;
62616;SDS011;62539;51.190;6.808;2022-09-09T04:38:31;3.35;;;1.00;;
62616;SDS011;62539;51.190;6.808;2022-09-09T04:40:56;1.63;;;0.80;;
62616;SDS011;62539;51.190;6.808;2022-09-09T04:43:22;1.42;;;0.80;;
62616;SDS011;62539;51.190;6.808;2022-09-09T04:45:49;1.10;;;0.70;;
62616;SDS011;62539;51.190;6.808;2022-09-09T04:48:16;1.33;;;0.70;;
62616;SDS011;62539;51.190;6.808;2022-09-09T04:50:43;3.50;;;0.80;;
62616;SDS011;62539;51.190;6.808;2022-09-09T04:53:08;2.55;;;0.90;;
62616;SDS011;62539;51.190;6.808;2022-09-09T04:55:34;0.63;;;0.55;;
62616;SDS011;62539;51.190;6.808;2022-09-09T04:58:04;0.95;;;0.70;;
62616;SDS011;62539;51.190;6.808;2022-09-09T05:00:31;2.03;;;0.68;;
62616;SDS011;62539;51.190;6.808;2022-09-09T05:02:58;1.80;;;0.80;;
62616;SDS011;62539;51.190;6.808;2022-09-09T05:05:29;2.60;;;0.90;;
62616;SDS011;62539;51.190;6.808;2022-09-09T05:07:59;3.30;;;0.90;;
62616;SDS011;62539;51.190;6.808;2022-09-09T05:10:29;3.83;;;0.80;;
62616;SDS011;62539;51.190;6.808;2022-09-09T05:12:55;2.67;;;0.70;;
62616;SDS011;62539;51.190;6.808;2022-09-09T05:15:21;5.20;;;0.80;;
62616;SDS011;62539;51.190;6.808;2022-09-09T05:17:46;4.72;;;0.80;;
62616;SDS011;62539;51.190;6.808;2022-09-09T05:20:11;4.88;;;0.73;;
62616;SDS011;62539;51.190;6.808;2022-09-09T05:22:37;3.00;;;0.80;;
62616;SDS011;62539;51.190;6.808;2022-09-09T05:25:03;15.48;;;1.05;;
62616;SDS011;62539;51.190;6.808;2022-09-09T05:27:29;5.28;;;1.30;;
62616;SDS011;62539;51.190;6.808;2022-09-09T05:29:56;5.65;;;1.10;;
62616;SDS011;62539;51.190;6.808;2022-09-09T05:32:23;4.63;;;0.90;;
62616;SDS011;62539;51.190;6.808;2022-09-09T05:34:49;3.90;;;0.80;;
62616;SDS011;62539;51.190;6.808;2022-09-09T05:37:15;2.65;;;0.77;;
62616;SDS011;62539;51.190;6.808;2022-09-09T05:39:41;7.50;;;1.10;;
62616;SDS011;62539;51.190;6.808;2022-09-09T05:42:07;6.45;;;0.80;;
62616;SDS011;62539;51.190;6.808;2022-09-09T05:44:32;6.25;;;1.00;;
62616;SDS011;62539;51.190;6.808;2022-09-09T05:46:58;3.78;;;0.93;;
62616;SDS011;62539;51.190;6.808;2022-09-09T05:49:23;4.80;;;0.80;;
62616;SDS011;62539;51.190;6.808;2022-09-09T05:51:49;10.30;;;0.90;;
62616;SDS011;62539;51.190;6.808;2022-09-09T05:54:15;3.83;;;1.02;;
62616;SDS011;62539;51.190;6.808;2022-09-09T05:56:41;4.78;;;0.90;;
62616;SDS011;62539;51.190;6.808;2022-09-09T05:59:07;2.53;;;1.10;;
62616;SDS011;62539;51.190;6.808;2022-09-09T06:01:34;8.32;;;0.80;;
62616;SDS011;62539;51.190;6.808;2022-09-09T06:04:05;8.10;;;0.90;;
62616;SDS011;62539;51.190;6.808;2022-09-09T06:06:35;2.75;;;0.60;;
62616;SDS011;62539;51.190;6.808;2022-09-09T06:09:04;4.47;;;0.70;;
62616;SDS011;62539;51.190;6.808;2022-09-09T06:14:01;4.38;;;0.80;;
62616;SDS011;62539;51.190;6.808;2022-09-09T06:16:28;4.05;;;0.70;;
62616;SDS011;62539;51.190;6.808;2022-09-09T06:18:57;2.27;;;0.73;;
62616;SDS011;62539;51.190;6.808;2022-09-09T06:21:27;1.70;;;0.70;;
62616;SDS011;62539;51.190;6.808;2022-09-09T06:23:56;2.75;;;0.93;;
62616;SDS011;62539;51.190;6.808;2022-09-09T06:26:29;4.45;;;0.70;;
62616;SDS011;62539;51.190;6.808;2022-09-09T06:29:00;1.95;;;0.88;;
62616;SDS011;62539;51.190;6.808;2022-09-09T06:31:29;2.97;;;0.75;;
62616;SDS011;62539;51.190;6.808;2022-09-09T06:33:59;2.92;;;0.90;;
62616;SDS011;62539;51.190;6.808;2022-09-09T06:36:30;3.13;;;0.70;;
62616;SDS011;62539;51.190;6.808;2022-09-09T06:38:58;1.45;;;0.70;;
62616;SDS011;62539;51.190;6.808;2022-09-09T06:41:25;2.80;;;0.80;;
62616;SDS011;62539;51.190;6.808;2022-09-09T06:43:54;1.90;;;0.65;;
62616;SDS011;62539;51.190;6.808;2022-09-09T06:46:23;3.58;;;0.80;;
62616;SDS011;62539;51.190;6.808;2022-09-09T06:48:55;2.08;;;0.93;;
62616;SDS011;62539;51.190;6.808;2022-09-09T06:51:22;1.42;;;0.50;;
62616;SDS011;62539;51.190;6.808;2022-09-09T06:53:51;1.83;;;0.75;;
62616;SDS011;62539;51.190;6.808;2022-09-09T06:56:21;1.25;;;0.80;;
62616;SDS011;62539;51.190;6.808;2022-09-09T06:58:56;1.10;;;0.68;;
62616;SDS011;62539;51.190;6.808;2022-09-09T07:03:54;2.67;;;0.60;;
62616;SDS011;62539;51.190;6.808;2022-09-09T07:06:41;3.58;;;0.70;;
62616;SDS011;62539;51.190;6.808;2022-09-09T07:09:10;2.60;;;0.85;;
62616;SDS011;62539;51.190;6.808;2022-09-09T07:11:39;3.55;;;0.60;;
62616;SDS011;62539;51.190;6.808;2022-09-09T07:14:07;1.67;;;0.75;;
62616;SDS011;62539;51.190;6.808;2022-09-09T07:16:33;5.80;;;0.70;;
62616;SDS011;62539;51.190;6.808;2022-09-09T07:19:02;5.20;;;0.77;;
62616;SDS011;62539;51.190;6.808;2022-09-09T07:21:29;14.63;;;0.88;;
62616;SDS011;62539;51.190;6.808;2022-09-09T07:23:58;14.40;;;0.90;;
62616;SDS011;62539;51.190;6.808;2022-09-09T07:26:27;3.40;;;0.95;;
62616;SDS011;62539;51.190;6.808;2022-09-09T07:28:55;7.72;;;0.63;;
62616;SDS011;62539;51.190;6.808;2022-09-09T07:31:23;3.88;;;0.88;;
62616;SDS011;62539;51.190;6.808;2022-09-09T07:33:58;5.00;;;0.90;;
62616;SDS011;62539;51.190;6.808;2022-09-09T07:36:26;3.67;;;0.80;;
62616;SDS011;62539;51.190;6.808;2022-09-09T07:38:55;4.93;;;0.85;;
62616;SDS011;62539;51.190;6.808;2022-09-09T07:41:25;4.63;;;0.68;;
62616;SDS011;62539;51.190;6.808;2022-09-09T07:43:59;8.70;;;1.00;;
62616;SDS011;62539;51.190;6.808;2022-09-09T07:46:28;9.73;;;1.17;;
62616;SDS011;62539;51.190;6.808;2022-09-09T07:48:54;7.40;;;1.42;;
62616;SDS011;62539;51.190;6.808;2022-09-09T07:51:26;6.63;;;0.80;;
62616;SDS011;62539;51.190;6.808;2022-09-09T07:54:05;5.30;;;0.98;;
62616;SDS011;62539;51.190;6.808;2022-09-09T07:56:34;15.00;;;1.15;;
62616;SDS011;62539;51.190;6.808;2022-09-09T07:59:00;6.95;;;1.10;;
62616;SDS011;62539;51.190;6.808;2022-09-09T08:03:58;2.45;;;0.95;;
62616;SDS011;62539;51.190;6.808;2022-09-09T08:06:46;2.95;;;0.98;;
62616;SDS011;62539;51.190;6.808;2022-09-09T08:09:15;3.05;;;0.80;;
62616;SDS011;62539;51.190;6.808;2022-09-09T08:11:41;4.45;;;1.10;;
62616;SDS011;62539;51.190;6.808;2022-09-09T08:14:08;5.60;;;1.05;;
62616;SDS011;62539;51.190;6.808;2022-09-09T08:16:36;4.88;;;0.80;;
62616;SDS011;62539;51.190;6.808;2022-09-09T08:19:08;4.85;;;1.25;;
62616;SDS011;62539;51.190;6.808;2022-09-09T08:21:35;4.05;;;1.23;;
62616;SDS011;62539;51.190;6.808;2022-09-09T08:24:05;4.93;;;1.38;;
62616;SDS011;62539;51.190;6.808;2022-09-09T08:26:34;3.40;;;0.90;;
62616;SDS011;62539;51.190;6.808;2022-09-09T08:33:59;4.57;;;0.80;;
62616;SDS011;62539;51.190;6.808;2022-09-09T08:36:28;4.80;;;0.90;;
62616;SDS011;62539;51.190;6.808;2022-09-09T08:38:58;5.38;;;1.00;;
62616;SDS011;62539;51.190;6.808;2022-09-09T08:52:36;3.05;;;0.93;;
62616;SDS011;62539;51.190;6.808;2022-09-09T09:04:10;8.55;;;1.27;;
62616;SDS011;62539;51.190;6.808;2022-09-09T09:12:39;3.17;;;0.93;;
62616;SDS011;62539;51.190;6.808;2022-09-09T09:15:19;8.40;;;1.05;;
62616;SDS011;62539;51.190;6.808;2022-09-09T09:17:55;4.35;;;1.27;;
62616;SDS011;62539;51.190;6.808;2022-09-09T09:20:23;6.75;;;1.20;;
62616;SDS011;62539;51.190;6.808;2022-09-09T09:23:06;3.67;;;1.17;;
62616;SDS011;62539;51.190;6.808;2022-09-09T09:25:47;4.60;;;1.10;;
62616;SDS011;62539;51.190;6.808;2022-09-09T09:28:19;5.28;;;1.02;;
62616;SDS011;62539;51.190;6.808;2022-09-09T09:36:06;5.10;;;1.23;;
62616;SDS011;62539;51.190;6.808;2022-09-09T09:38:33;5.18;;;1.67;;
62616;SDS011;62539;51.190;6.808;2022-09-09T09:41:01;7.72;;;1.48;;
62616;SDS011;62539;51.190;6.808;2022-09-09T09:43:31;4.63;;;1.20;;
62616;SDS011;62539;51.190;6.808;2022-09-09T09:46:05;6.43;;;1.45;;
62616;SDS011;62539;51.190;6.808;2022-09-09T09:48:58;5.35;;;1.30;;
62616;SDS011;62539;51.190;6.808;2022-09-09T09:51:30;2.78;;;1.02;;
62616;SDS011;62539;51.190;6.808;2022-09-09T09:56:43;3.05;;;1.02;;
62616;SDS011;62539;51.190;6.808;2022-09-09T10:02:13;6.32;;;1.30;;
62616;SDS011;62539;51.190;6.808;2022-09-09T10:04:45;4.15;;;1.27;;
62616;SDS011;62539;51.190;6.808;2022-09-09T10:09:44;4.65;;;1.30;;
62616;SDS011;62539;51.190;6.808;2022-09-09T10:20:54;7.40;;;1.02;;
62616;SDS011;62539;51.190;6.808;2022-09-09T10:33:00;5.97;;;0.90;;
62616;SDS011;62539;51.190;6.808;2022-09-09T10:35:37;1.60;;;0.73;;
62616;SDS011;62539;51.190;6.808;2022-09-09T10:41:12;2.30;;;0.60;;
62616;SDS011;62539;51.190;6.808;2022-09-09T10:44:14;3.85;;;0.93;;
62616;SDS011;62539;51.190;6.808;2022-09-09T10:56:17;10.27;;;0.98;;
62616;SDS011;62539;51.190;6.808;2022-09-09T10:59:00;2.65;;;0.85;;
62616;SDS011;62539;51.190;6.808;2022-09-09T11:01:40;7.07;;;1.33;;
62616;SDS011;62539;51.190;6.808;2022-09-09T11:06:53;4.18;;;1.00;;
62616;SDS011;62539;51.190;6.808;2022-09-09T11:09:22;1.98;;;0.80;;
62616;SDS011;62539;51.190;6.808;2022-09-09T11:11:55;5.07;;;0.90;;
62616;SDS011;62539;51.190;6.808;2022-09-09T11:15:25;6.65;;;0.80;;
62616;SDS011;62539;51.190;6.808;2022-09-09T11:17:46;8.40;;;1.13;;
62616;SDS011;62539;51.190;6.808;2022-09-09T11:20:19;2.53;;;0.75;;
62616;SDS011;62539;51.190;6.808;2022-09-09T11:22:48;2.75;;;0.98;;
62616;SDS011;62539;51.190;6.808;2022-09-09T11:25:35;7.57;;;0.80;;
62616;SDS011;62539;51.190;6.808;2022-09-09T11:34:38;1.92;;;0.68;;
62616;SDS011;62539;51.190;6.808;2022-09-09T11:37:21;5.03;;;0.90;;
62616;SDS011;62539;51.190;6.808;2022-09-09T11:40:07;4.47;;;0.90;;
62616;SDS011;62539;51.190;6.808;2022-09-09T11:42:46;7.50;;;1.95;;
62616;SDS011;62539;51.190;6.808;2022-09-09T11:47:59;17.52;;;4.18;;
62616;SDS011;62539;51.190;6.808;2022-09-09T11:50:28;16.20;;;2.95;;
62616;SDS011;62539;51.190;6.808;2022-09-09T11:56:00;10.32;;;2.50;;
62616;SDS011;62539;51.190;6.808;2022-09-09T11:58:31;7.50;;;1.67;;
62616;SDS011;62539;51.190;6.808;2022-09-09T12:01:26;8.68;;;1.60;;
62616;SDS011;62539;51.190;6.808;2022-09-09T12:04:06;5.13;;;1.40;;
62616;SDS011;62539;51.190;6.808;2022-09-09T12:12:24;8.13;;;1.00;;
62616;SDS011;62539;51.190;6.808;2022-09-09T12:14:58;4.07;;;1.15;;
62616;SDS011;62539;51.190;6.808;2022-09-09T12:17:27;6.90;;;1.30;;
62616;SDS011;62539;51.190;6.808;2022-09-09T12:23:03;5.95;;;1.20;;
62616;SDS011;62539;51.190;6.808;2022-09-09T12:32:09;5.20;;;1.10;;
62616;SDS011;62539;51.190;6.808;2022-09-09T12:35:04;6.38;;;1.30;;
62616;SDS011;62539;51.190;6.808;2022-09-09T12:37:52;4.60;;;1.10;;
62616;SDS011;62539;51.190;6.808;2022-09-09T12:40:24;4.65;;;1.60;;
62616;SDS011;62539;51.190;6.808;2022-09-09T12:42:53;6.93;;;1.20;;
62616;SDS011;62539;51.190;6.808;2022-09-09T12:45:24;8.73;;;1.10;;
62616;SDS011;62539;51.190;6.808;2022-09-09T12:48:05;9.25;;;0.98;;
62616;SDS011;62539;51.190;6.808;2022-09-09T12:50:35;6.20;;;1.65;;
62616;SDS011;62539;51.190;6.808;2022-09-09T12:53:10;6.70;;;1.80;;
62616;SDS011;62539;51.190;6.808;2022-09-09T12:55:48;5.30;;;1.90;;
62616;SDS011;62539;51.190;6.808;2022-09-09T12:58:17;4.95;;;1.60;;
62616;SDS011;62539;51.190;6.808;2022-09-09T13:00:52;6.30;;;1.60;;
62616;SDS011;62539;51.190;6.808;2022-09-09T13:03:23;9.00;;;1.92;;
62616;SDS011;62539;51.190;6.808;2022-09-09T13:05:53;7.50;;;1.77;;
62616;SDS011;62539;51.190;6.808;2022-09-09T13:08:25;7.72;;;1.80;;
62616;SDS011;62539;51.190;6.808;2022-09-09T13:13:29;7.25;;;2.40;;
62616;SDS011;62539;51.190;6.808;2022-09-09T13:16:02;6.45;;;1.67;;
62616;SDS011;62539;51.190;6.808;2022-09-09T13:18:34;7.78;;;1.58;;
62616;SDS011;62539;51.190;6.808;2022-09-09T13:21:03;8.93;;;2.00;;
62616;SDS011;62539;51.190;6.808;2022-09-09T13:23:30;7.35;;;1.70;;
62616;SDS011;62539;51.190;6.808;2022-09-09T13:26:01;7.00;;;1.90;;
62616;SDS011;62539;51.190;6.808;2022-09-09T13:28:48;7.53;;;1.92;;
62616;SDS011;62539;51.190;6.808;2022-09-09T13:34:10;6.75;;;2.00;;
62616;SDS011;62539;51.190;6.808;2022-09-09T13:36:52;6.88;;;1.98;;
62616;SDS011;62539;51.190;6.808;2022-09-09T13:39:23;8.35;;;2.13;;
62616;SDS011;62539;51.190;6.808;2022-09-09T13:41:49;9.40;;;2.42;;
62616;SDS011;62539;51.190;6.808;2022-09-09T13:44:17;8.07;;;2.00;;
62616;SDS011;62539;51.190;6.808;2022-09-09T13:47:02;5.07;;;1.98;;
62616;SDS011;62539;51.190;6.808;2022-09-09T13:49:30;5.95;;;1.60;;
62616;SDS011;62539;51.190;6.808;2022-09-09T13:52:05;3.95;;;1.23;;
62616;SDS011;62539;51.190;6.808;2022-09-09T13:54:36;5.65;;;1.52;;
62616;SDS011;62539;51.190;6.808;2022-09-09T13:57:02;5.43;;;1.90;;
62616;SDS011;62539;51.190;6.808;2022-09-09T13:59:29;6.13;;;1.40;;
62616;SDS011;62539;51.190;6.808;2022-09-09T14:01:55;9.32;;;1.20;;
62616;SDS011;62539;51.190;6.808;2022-09-09T14:04:20;6.20;;;1.38;;
62616;SDS011;62539;51.190;6.808;2022-09-09T14:06:46;2.92;;;1.10;;
62616;SDS011;62539;51.190;6.808;2022-09-09T14:09:13;4.95;;;1.10;;
62616;SDS011;62539;51.190;6.808;2022-09-09T14:11:41;3.88;;;1.30;;
62616;SDS011;62539;51.190;6.808;2022-09-09T14:14:07;5.53;;;1.10;;
62616;SDS011;62539;51.190;6.808;2022-09-09T14:16:33;2.45;;;1.10;;
62616;SDS011;62539;51.190;6.808;2022-09-09T14:18:59;4.55;;;1.25;;
62616;SDS011;62539;51.190;6.808;2022-09-09T14:21:25;2.97;;;1.02;;
62616;SDS011;62539;51.190;6.808;2022-09-09T14:23:52;2.97;;;1.30;;
62616;SDS011;62539;51.190;6.808;2022-09-09T14:26:18;3.75;;;1.40;;
62616;SDS011;62539;51.190;6.808;2022-09-09T14:28:46;4.20;;;1.25;;
62616;SDS011;62539;51.190;6.808;2022-09-09T14:31:13;2.63;;;0.95;;
62616;SDS011;62539;51.190;6.808;2022-09-09T14:33:39;3.55;;;1.17;;
62616;SDS011;62539;51.190;6.808;2022-09-09T14:36:05;8.50;;;1.10;;
62616;SDS011;62539;51.190;6.808;2022-09-09T14:38:33;3.30;;;1.00;;
62616;SDS011;62539;51.190;6.808;2022-09-09T14:41:04;2.80;;;1.05;;
62616;SDS011;62539;51.190;6.808;2022-09-09T14:43:35;5.05;;;0.90;;
62616;SDS011;62539;51.190;6.808;2022-09-09T14:46:05;16.83;;;1.10;;
62616;SDS011;62539;51.190;6.808;2022-09-09T14:48:37;5.88;;;1.70;;
62616;SDS011;62539;51.190;6.808;2022-09-09T14:51:15;2.47;;;0.93;;
62616;SDS011;62539;51.190;6.808;2022-09-09T14:53:47;2.50;;;0.88;;
62616;SDS011;62539;51.190;6.808;2022-09-09T14:56:16;7.80;;;1.35;;
62616;SDS011;62539;51.190;6.808;2022-09-09T14:58:45;12.57;;;1.30;;
62616;SDS011;62539;51.190;6.808;2022-09-09T15:01:12;6.88;;;1.10;;
62616;SDS011;62539;51.190;6.808;2022-09-09T15:03:47;7.40;;;1.20;;
62616;SDS011;62539;51.190;6.808;2022-09-09T15:06:16;5.45;;;1.35;;
62616;SDS011;62539;51.190;6.808;2022-09-09T15:08:43;7.80;;;1.60;;
62616;SDS011;62539;51.190;6.808;2022-09-09T15:11:11;4.75;;;1.00;;
62616;SDS011;62539;51.190;6.808;2022-09-09T15:13:38;5.30;;;0.77;;
62616;SDS011;62539;51.190;6.808;2022-09-09T15:16:07;5.20;;;0.77;;
62616;SDS011;62539;51.190;6.808;2022-09-09T15:18:38;6.07;;;1.27;;
62616;SDS011;62539;51.190;6.808;2022-09-09T15:21:10;3.22;;;0.82;;
62616;SDS011;62539;51.190;6.808;2022-09-09T15:23:44;5.43;;;1.08;;
62616;SDS011;62539;51.190;6.808;2022-09-09T15:26:11;6.78;;;0.80;;
62616;SDS011;62539;51.190;6.808;2022-09-09T15:28:39;5.32;;;1.00;;
62616;SDS011;62539;51.190;6.808;2022-09-09T15:31:06;6.32;;;1.00;;
62616;SDS011;62539;51.190;6.808;2022-09-09T15:33:34;4.85;;;1.00;;
62616;SDS011;62539;51.190;6.808;2022-09-09T15:36:11;3.17;;;0.75;;
62616;SDS011;62539;51.190;6.808;2022-09-09T15:38:49;3.08;;;0.82;;
62616;SDS011;62539;51.190;6.808;2022-09-09T15:41:15;8.73;;;1.15;;
62616;SDS011;62539;51.190;6.808;2022-09-09T15:43:44;2.38;;;0.70;;
62616;SDS011;62539;51.190;6.808;2022-09-09T15:46:22;3.70;;;0.85;;
62616;SDS011;62539;51.190;6.808;2022-09-09T15:49:04;3.78;;;0.80;;
62616;SDS011;62539;51.190;6.808;2022-09-09T15:51:35;3.25;;;0.73;;
62616;SDS011;62539;51.190;6.808;2022-09-09T15:54:02;3.75;;;0.80;;
62616;SDS011;62539;51.190;6.808;2022-09-09T15:56:29;2.83;;;0.75;;
62616;SDS011;62539;51.190;6.808;2022-09-09T15:58:56;4.22;;;0.77;;
62616;SDS011;62539;51.190;6.808;2022-09-09T16:01:24;6.07;;;0.77;;
62616;SDS011;62539;51.190;6.808;2022-09-09T16:03:51;2.88;;;0.73;;
62616;SDS011;62539;51.190;6.808;2022-09-09T16:06:19;1.60;;;0.50;;
62616;SDS011;62539;51.190;6.808;2022-09-09T16:08:47;2.22;;;0.73;;
62616;SDS011;62539;51.190;6.808;2022-09-09T16:11:17;9.87;;;1.03;;
62616;SDS011;62539;51.190;6.808;2022-09-09T16:13:49;2.20;;;0.75;;
62616;SDS011;62539;51.190;6.808;2022-09-09T16:16:17;2.17;;;0.70;;
62616;SDS011;62539;51.190;6.808;2022-09-09T16:18:48;4.53;;;0.90;;
62616;SDS011;62539;51.190;6.808;2022-09-09T16:21:21;10.52;;;0.93;;
62616;SDS011;62539;51.190;6.808;2022-09-09T16:24:00;2.55;;;0.80;;
62616;SDS011;62539;51.190;6.808;2022-09-09T16:26:29;3.15;;;1.00;;
62616;SDS011;62539;51.190;6.808;2022-09-09T16:28:57;1.33;;;0.80;;
62616;SDS011;62539;51.190;6.808;2022-09-09T16:31:24;8.52;;;0.73;;
62616;SDS011;62539;51.190;6.808;2022-09-09T16:33:52;2.67;;;0.88;;
62616;SDS011;62539;51.190;6.808;2022-09-09T16:36:19;5.72;;;0.88;;
62616;SDS011;62539;51.190;6.808;2022-09-09T16:41:18;8.23;;;1.00;;
62616;SDS011;62539;51.190;6.808;2022-09-09T16:43:44;8.63;;;1.20;;
62616;SDS011;62539;51.190;6.808;2022-09-09T16:46:11;4.15;;;1.65;;
62616;SDS011;62539;51.190;6.808;2022-09-09T16:48:40;4.05;;;1.20;;
62616;SDS011;62539;51.190;6.808;2022-09-09T16:51:09;3.55;;;1.20;;
62616;SDS011;62539;51.190;6.808;2022-09-09T16:53:42;4.30;;;1.20;;
62616;SDS011;62539;51.190;6.808;2022-09-09T16:56:16;3.40;;;1.63;;
62616;SDS011;62539;51.190;6.808;2022-09-09T16:58:49;6.28;;;1.25;;
62616;SDS011;62539;51.190;6.808;2022-09-09T17:01:16;4.63;;;1.30;;
62616;SDS011;62539;51.190;6.808;2022-09-09T17:03:42;6.28;;;1.40;;
62616;SDS011;62539;51.190;6.808;2022-09-09T17:06:11;8.38;;;1.45;;
62616;SDS011;62539;51.190;6.808;2022-09-09T17:08:38;4.38;;;1.30;;
62616;SDS011;62539;51.190;6.808;2022-09-09T17:11:16;3.22;;;1.30;;
62616;SDS011;62539;51.190;6.808;2022-09-09T17:13:44;2.25;;;1.00;;
62616;SDS011;62539;51.190;6.808;2022-09-09T17:16:12;2.05;;;0.90;;
62616;SDS011;62539;51.190;6.808;2022-09-09T17:18:40;4.15;;;1.00;;
62616;SDS011;62539;51.190;6.808;2022-09-09T17:21:07;4.85;;;0.95;;
62616;SDS011;62539;51.190;6.808;2022-09-09T17:23:39;7.50;;;1.17;;
62616;SDS011;62539;51.190;6.808;2022-09-09T17:26:06;2.63;;;1.00;;
62616;SDS011;62539;51.190;6.808;2022-09-09T17:28:35;5.63;;;1.00;;
62616;SDS011;62539;51.190;6.808;2022-09-09T17:31:04;3.03;;;1.05;;
62616;SDS011;62539;51.190;6.808;2022-09-09T17:33:35;2.30;;;1.00;;
62616;SDS011;62539;51.190;6.808;2022-09-09T17:36:14;4.32;;;0.90;;
62616;SDS011;62539;51.190;6.808;2022-09-09T17:38:50;2.97;;;1.10;;
62616;SDS011;62539;51.190;6.808;2022-09-09T17:43:44;4.07;;;1.08;;
62616;SDS011;62539;51.190;6.808;2022-09-09T17:46:15;4.70;;;1.02;;
62616;SDS011;62539;51.190;6.808;2022-09-09T17:48:43;3.88;;;1.08;;
62616;SDS011;62539;51.190;6.808;2022-09-09T17:51:12;4.93;;;1.15;;
62616;SDS011;62539;51.190;6.808;2022-09-09T17:53:43;3.63;;;1.17;;
62616;SDS011;62539;51.190;6.808;2022-09-09T17:56:12;3.63;;;1.10;;
62616;SDS011;62539;51.190;6.808;2022-09-09T17:58:41;2.83;;;0.93;;
62616;SDS011;62539;51.190;6.808;2022-09-09T18:01:09;3.10;;;1.00;;
62616;SDS011;62539;51.190;6.808;2022-09-09T18:03:43;3.22;;;1.00;;